createdAt,value
2022-09-05T00:01:32.903Z,63.19
2022-09-05T00:04:34.906Z,63.50
2022-09-05T00:07:31.158Z,63.47
2022-09-05T00:10:20.722Z,63.52
2022-09-05T00:12:50.753Z,63.75
2022-09-05T00:15:43.173Z,63.50
2022-09-05T00:20:55.146Z,63.93
2022-09-05T00:24:26.946Z,64.17
2022-09-05T00:25:21.189Z,64.19
2022-09-05T00:28:06.835Z,66.44
2022-09-05T00:31:54.851Z,69.25
2022-09-05T00:34:51.030Z,72.18
2022-09-05T00:37:37.336Z,74.31
2022-09-05T00:40:33.360Z,74.73
2022-09-05T00:43:08.075Z,75.75
2022-09-05T00:46:12.079Z,77.12
2022-09-05T00:49:07.449Z,79.57
2022-09-05T00:51:52.993Z,80.56
2022-09-05T00:54:53.395Z,81.28
2022-09-05T00:57:48.256Z,83.31
2022-09-05T01:00:17.606Z,84.10
2022-09-05T01:03:23.047Z,84.16
2022-09-05T01:06:28.098Z,84.85
2022-09-05T01:09:13.019Z,85.40
2022-09-05T01:11:45.705Z,86.01
2022-09-05T01:14:24.387Z,87.42
2022-09-05T01:17:12.667Z,87.57
2022-09-05T01:19:51.816Z,87.71
2022-09-05T01:22:56.939Z,88.82
2022-09-05T01:25:54.778Z,89.23
2022-09-05T01:29:15.426Z,89.24
2022-09-05T01:31:58.798Z,88.87
2022-09-05T01:34:31.333Z,87.71
2022-09-05T01:37:07.439Z,87.79
2022-09-05T01:40:14.809Z,88.04
2022-09-05T01:42:49.462Z,88.14
2022-09-05T01:45:30.240Z,88.84
2022-09-05T01:48:30.460Z,89.89
2022-09-05T01:51:29.421Z,89.13
2022-09-05T01:54:16.105Z,89.55
2022-09-05T01:57:33.233Z,89.82
2022-09-05T02:00:12.582Z,90.42
2022-09-05T02:03:07.085Z,90.54
2022-09-05T02:06:19.395Z,90.28
2022-09-05T02:08:49.084Z,90.60
2022-09-05T02:11:16.609Z,89.94
2022-09-05T02:14:34.507Z,89.70
2022-09-05T02:17:49.681Z,89.44
2022-09-05T02:20:46.913Z,88.86
2022-09-05T02:23:40.689Z,89.34
2022-09-05T02:26:34.655Z,90.23
2022-09-05T02:29:39.632Z,90.66
2022-09-05T02:32:18.424Z,90.00
2022-09-05T02:34:58.973Z,89.85
2022-09-05T02:40:07.750Z,89.54
2022-09-05T02:45:03.629Z,89.26
2022-09-05T02:45:08.931Z,89.77
2022-09-05T02:46:45.504Z,90.54
2022-09-05T02:50:58.280Z,89.49
2022-09-05T02:57:25.072Z,89.89
2022-09-05T02:57:35.415Z,89.95
2022-09-05T02:59:08.145Z,90.34
2022-09-05T03:01:46.930Z,91.32
2022-09-05T03:04:13.761Z,91.18
2022-09-05T03:06:55.022Z,90.84
2022-09-05T03:10:12.509Z,91.33
2022-09-05T03:12:41.861Z,91.79
2022-09-05T03:15:56.515Z,92.47
2022-09-05T03:18:26.364Z,92.31
2022-09-05T03:21:14.560Z,92.61
2022-09-05T03:24:10.926Z,92.17
2022-09-05T03:27:14.704Z,91.66
2022-09-05T03:30:18.904Z,91.63
2022-09-05T03:33:07.374Z,91.82
2022-09-05T03:35:49.079Z,92.02
2022-09-05T03:38:56.878Z,92.18
2022-09-05T03:41:40.587Z,91.99
2022-09-05T03:44:16.984Z,90.94
2022-09-05T03:47:11.774Z,90.79
2022-09-05T03:55:52.833Z,91.16
2022-09-05T03:57:17.190Z,90.91
2022-09-05T03:57:27.198Z,91.25
2022-09-05T03:59:21.379Z,91.88
2022-09-05T04:02:57.966Z,91.58
2022-09-05T04:08:18.541Z,90.76
2022-09-05T04:08:24.412Z,90.60
2022-09-05T04:10:42.500Z,90.53
2022-09-05T04:13:20.719Z,90.97
2022-09-05T04:16:01.722Z,91.06
2022-09-05T04:18:39.478Z,91.05
2022-09-05T04:21:34.660Z,91.42
2022-09-05T04:24:10.444Z,90.59
2022-09-05T04:26:58.396Z,90.44
2022-09-05T04:29:28.218Z,90.42
2022-09-05T04:32:18.841Z,90.25
2022-09-05T04:35:11.898Z,89.99
2022-09-05T04:37:48.938Z,89.34
2022-09-05T04:40:41.011Z,89.76
2022-09-05T04:43:19.005Z,89.97
2022-09-05T04:45:54.729Z,89.87
2022-09-05T04:48:35.021Z,90.66
2022-09-05T04:51:21.016Z,90.57
2022-09-05T04:54:05.327Z,90.83
2022-09-05T04:56:38.067Z,90.82
2022-09-05T05:01:40.730Z,90.96
2022-09-05T05:06:08.110Z,91.22
2022-09-05T05:06:09.419Z,91.80
2022-09-05T05:07:57.888Z,91.55
2022-09-05T05:16:34.079Z,91.78
2022-09-05T05:18:11.478Z,91.50
2022-09-05T05:18:12.956Z,91.71
2022-09-05T05:19:33.485Z,91.61
2022-09-05T05:22:04.980Z,91.81
2022-09-05T05:24:42.463Z,92.25
2022-09-05T05:27:56.906Z,93.73
2022-09-05T05:30:31.972Z,93.33
2022-09-05T05:33:04.015Z,93.30
2022-09-05T05:35:33.632Z,92.75
2022-09-05T05:38:37.532Z,92.29
2022-09-05T05:41:19.062Z,92.32
2022-09-05T05:43:47.721Z,92.46
2022-09-05T05:46:27.186Z,92.91
2022-09-05T05:49:04.221Z,92.73
2022-09-05T05:52:01.248Z,93.19
2022-09-05T05:54:36.246Z,93.04
2022-09-05T05:57:56.919Z,92.44
2022-09-05T06:00:29.731Z,92.81
2022-09-05T06:03:38.116Z,92.83
2022-09-05T06:06:32.724Z,93.10
2022-09-05T06:12:01.145Z,93.23
2022-09-05T06:15:01.763Z,93.52
2022-09-05T06:15:26.907Z,93.09
2022-09-05T06:17:54.081Z,93.23
2022-09-05T06:22:06.423Z,93.07
2022-09-05T06:23:46.445Z,92.75
2022-09-05T06:26:42.689Z,92.52
2022-09-05T06:29:15.497Z,92.42
2022-09-05T06:32:14.185Z,91.92
2022-09-05T06:34:46.691Z,91.96
2022-09-05T06:37:46.818Z,91.90
2022-09-05T06:40:30.250Z,92.01
2022-09-05T06:43:22.048Z,91.34
2022-09-05T06:46:05.044Z,91.36
2022-09-05T06:48:46.045Z,91.00
2022-09-05T06:51:48.703Z,90.87
2022-09-05T06:55:00.043Z,91.31
2022-09-05T06:57:35.809Z,91.47
2022-09-05T07:00:33.920Z,91.73
2022-09-05T07:03:13.557Z,90.98
2022-09-05T07:05:50.371Z,90.34
2022-09-05T07:09:02.707Z,90.15
2022-09-05T07:12:06.058Z,89.94
2022-09-05T07:14:36.174Z,89.68
2022-09-05T07:17:59.695Z,90.83
2022-09-05T07:21:15.968Z,89.83
2022-09-05T07:24:09.335Z,89.34
2022-09-05T07:26:53.751Z,89.25
2022-09-05T07:29:35.251Z,89.21
2022-09-05T07:32:06.494Z,89.45
2022-09-05T07:34:38.080Z,89.42
2022-09-05T07:37:15.114Z,89.03
2022-09-05T07:39:57.968Z,88.84
2022-09-05T07:43:09.360Z,88.43
2022-09-05T07:45:55.277Z,88.53
2022-09-05T07:48:34.856Z,87.91
2022-09-05T07:56:52.760Z,87.94
2022-09-05T07:56:54.953Z,87.63
2022-09-05T07:59:53.698Z,87.36
2022-09-05T08:02:20.758Z,87.21
2022-09-05T08:04:47.746Z,87.62
2022-09-05T08:07:48.272Z,87.32
2022-09-05T08:10:15.390Z,89.87
2022-09-05T08:13:24.723Z,91.37
2022-09-05T08:16:10.997Z,90.43
2022-09-05T08:18:50.410Z,88.58
2022-09-05T08:21:40.009Z,87.61
2022-09-05T08:24:27.064Z,87.46
2022-09-05T08:27:06.077Z,87.68
2022-09-05T08:30:25.656Z,86.56
2022-09-05T08:33:13.208Z,85.85
2022-09-05T08:35:50.182Z,85.44
2022-09-05T08:38:21.729Z,85.07
2022-09-05T08:41:42.980Z,84.27
2022-09-05T08:46:35.293Z,84.32
2022-09-05T08:47:25.391Z,85.19
2022-09-05T08:50:27.230Z,84.79
2022-09-05T08:53:28.368Z,84.90
2022-09-05T08:56:01.536Z,85.04
2022-09-05T08:58:43.699Z,85.11
2022-09-05T09:01:14.149Z,84.89
2022-09-05T09:03:59.919Z,85.26
2022-09-05T09:07:29.166Z,84.38
2022-09-05T09:10:01.681Z,84.21
2022-09-05T09:13:05.101Z,84.21
2022-09-05T09:15:46.209Z,84.52
2022-09-05T09:18:16.401Z,84.43
2022-09-05T09:20:56.998Z,84.63
2022-09-05T09:23:45.067Z,84.20
2022-09-05T09:26:24.552Z,84.31
2022-09-05T09:29:21.204Z,84.27
2022-09-05T09:32:13.905Z,84.04
2022-09-05T09:34:53.532Z,83.58
2022-09-05T09:37:51.832Z,83.36
2022-09-05T09:40:38.423Z,84.09
2022-09-05T09:43:23.434Z,83.86
2022-09-05T09:46:18.469Z,82.51
2022-09-05T09:49:03.329Z,81.44
2022-09-05T09:52:19.416Z,80.94
2022-09-05T09:55:09.642Z,80.58
2022-09-05T09:58:12.381Z,79.46
2022-09-05T10:01:35.898Z,79.21
2022-09-05T10:08:22.971Z,78.73
2022-09-05T10:10:51.338Z,78.98
2022-09-05T10:10:51.763Z,78.20
2022-09-05T10:13:27.338Z,79.01
2022-09-05T10:16:16.145Z,77.96
2022-09-05T10:18:54.644Z,78.51
2022-09-05T10:21:40.388Z,77.71
2022-09-05T10:24:29.971Z,78.35
2022-09-05T10:27:13.951Z,78.43
2022-09-05T10:30:08.093Z,78.13
2022-09-05T10:35:07.968Z,78.01
2022-09-05T10:36:17.560Z,77.93
2022-09-05T10:38:47.481Z,77.32
2022-09-05T10:41:21.140Z,77.17
2022-09-05T10:44:02.520Z,76.66
2022-09-05T10:46:56.432Z,76.14
2022-09-05T10:49:34.893Z,75.93
2022-09-05T10:52:19.231Z,76.46
2022-09-05T10:55:18.738Z,77.25
2022-09-05T10:57:48.356Z,76.50
2022-09-05T11:02:22.999Z,76.53
2022-09-05T11:03:37.273Z,76.00
2022-09-05T11:06:12.272Z,76.05
2022-09-05T11:08:39.100Z,76.39
2022-09-05T11:11:34.594Z,76.23
2022-09-05T11:14:26.394Z,77.58
2022-09-05T11:17:07.359Z,77.22
2022-09-05T11:19:47.661Z,76.55
2022-09-05T11:22:22.933Z,76.58
2022-09-05T11:25:03.816Z,76.52
2022-09-05T11:27:36.595Z,76.79
2022-09-05T11:30:30.991Z,76.65
2022-09-05T11:37:35.804Z,76.83
2022-09-05T11:39:57.629Z,76.76
2022-09-05T11:40:07.349Z,76.27
2022-09-05T11:42:50.448Z,76.08
2022-09-05T11:45:46.109Z,75.48
2022-09-05T11:48:53.574Z,75.28
2022-09-05T11:51:26.038Z,75.31
2022-09-05T11:54:28.895Z,74.97
2022-09-05T11:57:02.202Z,74.97
2022-09-05T12:00:31.947Z,74.65
2022-09-05T12:03:01.838Z,72.93
2022-09-05T12:05:59.417Z,71.23
2022-09-05T12:08:28.804Z,71.18
2022-09-05T12:11:27.858Z,71.67
2022-09-05T12:14:37.002Z,71.37
2022-09-05T12:17:35.103Z,70.47
2022-09-05T12:20:17.270Z,70.26
2022-09-05T12:23:53.606Z,70.78
2022-09-05T12:27:41.240Z,71.21
2022-09-05T12:29:29.332Z,71.76
2022-09-05T12:33:28.353Z,73.40
2022-09-05T12:36:03.852Z,74.06
2022-09-05T12:41:43.150Z,73.93
2022-09-05T12:42:10.704Z,73.71
2022-09-05T12:44:41.192Z,74.14
2022-09-05T12:47:16.754Z,74.49
2022-09-05T12:50:02.699Z,74.77
2022-09-05T12:52:34.078Z,74.58
2022-09-05T12:55:11.341Z,74.48
2022-09-05T13:02:36.300Z,74.08
2022-09-05T13:03:07.759Z,74.11
2022-09-05T13:04:05.992Z,73.45
2022-09-05T13:06:39.285Z,73.06
2022-09-05T13:09:16.984Z,73.10
2022-09-05T13:14:46.802Z,73.42
2022-09-05T13:15:18.670Z,72.63
2022-09-05T13:18:17.570Z,72.30
2022-09-05T13:21:00.386Z,72.06
2022-09-05T13:23:39.655Z,71.86
2022-09-05T13:26:13.393Z,71.53
2022-09-05T13:29:21.315Z,73.19
2022-09-05T13:38:07.998Z,73.13
2022-09-05T13:38:19.619Z,73.56
2022-09-05T13:38:37.797Z,73.28
2022-09-05T13:41:27.599Z,74.15
2022-09-05T13:44:00.394Z,73.87
2022-09-05T13:46:57.409Z,74.50
2022-09-05T13:49:55.538Z,74.69
2022-09-05T13:52:45.178Z,73.86
2022-09-05T13:55:40.202Z,73.69
2022-09-05T13:58:35.232Z,73.11
2022-09-05T14:01:28.556Z,73.18
2022-09-05T14:03:57.282Z,73.16
2022-09-05T14:06:45.453Z,73.29
2022-09-05T14:09:43.003Z,73.83
2022-09-05T14:12:33.411Z,72.87
2022-09-05T14:15:25.229Z,73.35
2022-09-05T14:17:58.237Z,73.00
2022-09-05T14:20:49.694Z,73.56
2022-09-05T14:23:19.473Z,73.62
2022-09-05T14:26:14.779Z,73.94
2022-09-05T14:28:52.291Z,73.88
2022-09-05T14:35:35.290Z,74.21
2022-09-05T14:37:49.994Z,74.34
2022-09-05T14:38:09.314Z,74.73
2022-09-05T14:41:15.685Z,75.17
2022-09-05T14:43:59.501Z,74.97
2022-09-05T14:46:45.652Z,75.51
2022-09-05T14:49:50.488Z,75.91
2022-09-05T14:52:30.671Z,76.68
2022-09-05T15:02:38.482Z,74.46
2022-09-05T15:02:44.082Z,73.97
2022-09-05T15:06:41.200Z,72.33
2022-09-05T15:12:21.289Z,71.62
2022-09-05T15:12:33.208Z,70.46
2022-09-05T15:15:20.435Z,69.29
2022-09-05T15:17:50.823Z,69.84
2022-09-05T15:20:37.512Z,70.86
2022-09-05T15:23:16.745Z,71.33
2022-09-05T15:26:02.902Z,69.92
2022-09-05T15:28:50.934Z,70.10
2022-09-05T15:31:39.456Z,69.45
2022-09-05T15:34:28.427Z,69.31
2022-09-05T15:36:56.726Z,69.63
2022-09-05T15:39:43.974Z,68.27
2022-09-05T15:42:22.697Z,67.49
2022-09-05T15:45:09.631Z,67.85
2022-09-05T15:47:39.715Z,67.74
2022-09-05T15:50:38.570Z,67.83
2022-09-05T15:53:05.637Z,70.19
2022-09-05T15:55:46.055Z,68.58
2022-09-05T15:58:19.621Z,68.90
2022-09-05T16:00:55.690Z,68.22
2022-09-05T16:04:01.188Z,68.33
2022-09-05T16:10:35.757Z,67.92
2022-09-05T16:10:36.591Z,67.76
2022-09-05T16:18:23.374Z,69.06
2022-09-05T16:23:13.154Z,68.91
2022-09-05T16:23:37.372Z,69.07
2022-09-05T16:24:06.124Z,68.40
2022-09-05T16:26:40.881Z,68.54
2022-09-05T16:29:25.209Z,67.66
2022-09-05T16:32:25.562Z,67.56
2022-09-05T16:34:57.759Z,66.96
2022-09-05T16:37:40.706Z,66.91
2022-09-05T16:40:26.196Z,67.00
2022-09-05T16:43:18.401Z,68.20
2022-09-05T16:45:54.743Z,68.80
2022-09-05T16:48:37.561Z,68.09
2022-09-05T16:51:35.507Z,67.45
2022-09-05T16:54:33.895Z,67.44
2022-09-05T16:57:17.038Z,68.12
2022-09-05T16:59:55.353Z,68.13
2022-09-05T17:02:36.411Z,68.09
2022-09-05T17:05:38.296Z,68.10
2022-09-05T17:08:26.024Z,67.63
2022-09-05T17:11:13.728Z,67.50
2022-09-05T17:14:06.458Z,67.86
2022-09-05T17:16:56.532Z,67.83
2022-09-05T17:19:33.671Z,67.95
2022-09-05T17:25:16.870Z,66.99
2022-09-05T17:29:30.890Z,67.05
2022-09-05T17:29:32.752Z,67.76
2022-09-05T17:33:45.074Z,67.48
2022-09-05T17:36:21.668Z,67.73
2022-09-05T17:39:10.760Z,67.08
2022-09-05T17:42:09.615Z,67.54
2022-09-05T17:44:46.643Z,67.16
2022-09-05T17:47:17.381Z,66.94
2022-09-05T17:50:00.434Z,67.22
2022-09-05T17:52:27.669Z,67.46
2022-09-05T17:55:10.317Z,67.88
2022-09-05T17:57:39.451Z,68.10
2022-09-05T18:00:49.043Z,68.41
2022-09-05T18:03:38.970Z,68.52
2022-09-05T18:06:15.689Z,69.07
2022-09-05T18:08:46.381Z,69.47
2022-09-05T18:14:29.809Z,70.26
2022-09-05T18:19:57.843Z,70.87
2022-09-05T18:22:30.038Z,71.62
2022-09-05T18:28:22.492Z,71.83
2022-09-05T18:30:49.624Z,72.38
2022-09-05T18:33:56.326Z,72.68
2022-09-05T18:36:25.703Z,73.01
2022-09-05T18:39:24.346Z,72.92
2022-09-05T18:42:09.127Z,73.15
2022-09-05T18:44:55.342Z,73.18
2022-09-05T18:47:53.237Z,73.60
2022-09-05T18:50:32.463Z,72.78
2022-09-05T18:53:09.106Z,73.72
2022-09-05T18:56:13.363Z,72.83
2022-09-05T18:59:13.358Z,71.98
2022-09-05T19:01:53.791Z,72.94
2022-09-05T19:04:51.209Z,72.73
2022-09-05T19:07:35.804Z,72.17
2022-09-05T19:10:36.281Z,72.68
2022-09-05T19:12:56.386Z,72.47
2022-09-05T19:15:34.288Z,73.26
2022-09-05T19:18:26.386Z,72.58
2022-09-05T19:21:12.179Z,73.16
2022-09-05T19:24:02.603Z,72.60
2022-09-05T19:26:33.889Z,72.70
2022-09-05T19:36:47.390Z,72.77
2022-09-05T19:36:52.112Z,73.33
2022-09-05T19:37:07.385Z,73.07
2022-09-05T19:37:54.832Z,73.17
2022-09-05T19:47:31.136Z,73.00
2022-09-05T19:47:39.123Z,73.30
2022-09-05T19:47:39.457Z,73.80
2022-09-05T19:49:12.546Z,73.47
2022-09-05T19:51:47.664Z,73.77
2022-09-05T19:54:30.481Z,74.69
2022-09-05T19:57:07.761Z,74.74
2022-09-05T19:59:39.943Z,75.40
2022-09-05T20:02:22.057Z,76.14
2022-09-05T20:04:56.338Z,76.23
2022-09-05T20:07:29.211Z,76.62
2022-09-05T20:10:05.814Z,77.37
2022-09-05T20:12:38.883Z,77.87
2022-09-05T20:15:24.212Z,77.50
2022-09-05T20:17:53.788Z,78.23
2022-09-05T20:20:27.364Z,78.02
2022-09-05T20:23:22.087Z,78.61
2022-09-05T20:25:53.212Z,78.89
2022-09-05T20:28:27.317Z,78.42
2022-09-05T20:31:02.961Z,78.71
2022-09-05T20:33:44.072Z,78.74
2022-09-05T20:43:07.949Z,78.45
2022-09-05T20:43:29.409Z,78.50
2022-09-05T20:43:35.040Z,79.10
2022-09-05T20:44:51.921Z,78.39
2022-09-05T20:54:05.522Z,78.77
2022-09-05T20:54:20.331Z,79.10
2022-09-05T20:54:28.316Z,78.34
2022-09-05T20:56:23.269Z,79.53
2022-09-05T20:58:51.411Z,79.58
2022-09-05T21:01:22.862Z,78.92
2022-09-05T21:04:01.356Z,79.05
2022-09-05T21:06:36.628Z,79.25
2022-09-05T21:09:22.523Z,79.08
2022-09-05T21:12:14.880Z,78.79
2022-09-05T21:15:07.326Z,78.98
2022-09-05T21:18:01.520Z,78.48
2022-09-05T21:20:28.798Z,78.31
2022-09-05T21:22:55.580Z,78.49
2022-09-05T21:25:25.688Z,79.02
2022-09-05T21:28:21.939Z,79.05
2022-09-05T21:30:48.843Z,77.93
2022-09-05T21:33:20.099Z,78.16
2022-09-05T21:35:59.433Z,78.27
2022-09-05T21:38:33.596Z,78.43
2022-09-05T21:41:05.051Z,77.99
2022-09-05T21:47:33.118Z,78.13
2022-09-05T21:47:46.173Z,78.19
2022-09-05T21:49:09.234Z,77.56
2022-09-05T21:51:37.471Z,77.86
2022-09-05T21:59:14.714Z,77.86
2022-09-05T21:59:25.012Z,77.90
2022-09-05T21:59:47.486Z,77.44
2022-09-05T22:02:17.023Z,77.18
2022-09-05T22:04:44.087Z,77.48
2022-09-05T22:07:32.575Z,77.22
2022-09-05T22:10:04.497Z,77.02
2022-09-05T22:12:36.228Z,77.90
2022-09-05T22:15:26.176Z,79.49
2022-09-05T22:18:16.593Z,82.30
2022-09-05T22:21:34.125Z,83.99
2022-09-05T22:24:08.880Z,86.33
2022-09-05T22:27:11.767Z,86.00
2022-09-05T22:29:56.743Z,87.74
2022-09-05T22:32:34.361Z,88.70
2022-09-05T22:35:27.010Z,89.94
2022-09-05T22:37:59.361Z,90.28
2022-09-05T22:40:27.986Z,91.18
2022-09-05T22:43:00.318Z,92.32
2022-09-05T22:45:28.656Z,92.93
2022-09-05T22:47:55.998Z,92.92
2022-09-05T22:50:23.836Z,92.48
2022-09-05T22:52:50.858Z,92.64
2022-09-05T22:55:17.703Z,92.52
2022-09-05T22:57:46.719Z,93.23
2022-09-05T23:00:14.037Z,94.23
2022-09-05T23:02:41.023Z,95.24
2022-09-05T23:05:11.490Z,95.66
2022-09-05T23:07:39.007Z,96.50
2022-09-05T23:10:06.029Z,97.24
2022-09-05T23:12:42.525Z,97.71
2022-09-05T23:15:25.641Z,98.00
2022-09-05T23:17:57.698Z,98.21
2022-09-05T23:20:26.571Z,98.09
2022-09-05T23:22:53.578Z,98.05
2022-09-05T23:25:21.760Z,98.68
2022-09-05T23:28:05.332Z,98.31
2022-09-05T23:30:32.150Z,97.83
2022-09-05T23:32:58.920Z,98.18
2022-09-05T23:35:29.210Z,97.95
2022-09-05T23:38:03.590Z,98.21
2022-09-05T23:40:30.484Z,98.24
2022-09-05T23:43:01.348Z,98.84
2022-09-05T23:45:29.484Z,99.14
2022-09-05T23:48:00.046Z,98.72
2022-09-05T23:50:28.216Z,98.91
2022-09-05T23:52:55.310Z,98.90
2022-09-05T23:55:23.566Z,98.84
2022-09-05T23:57:56.438Z,99.08
